Time;durP1;ratioP1;P1;durP2;ratioP2;P2;SDS_P1;SDS_P2;PMS_P1;PMS_P2;Temp;Humidity;BMP_temperature;BMP_pressure;BME280_temperature;BME280_humidity;BME280_pressure;Samples;Min_cycle;Max_cycle;Signal;HPM_P1;HPM_P2
2021/07/05 00:00:31;;;;;;;23.90;20.52;;;;;;;;;;2045091;29;20180;-62
2021/07/05 00:01:32;;;;;;;25.30;20.63;;;;;;;;;;2048360;29;20238;-60
2021/07/05 00:02:32;;;;;;;24.42;20.38;;;;;;;;;;2050874;29;20207;-61
2021/07/05 00:03:33;;;;;;;24.77;20.60;;;;;;;;;;2047704;29;20184;-63
2021/07/05 00:04:33;;;;;;;26.80;21.20;;;;;;;;;;2056112;28;20194;-60
2021/07/05 00:05:33;;;;;;;26.02;20.77;;;;;;;;;;2049495;28;20515;-60
2021/07/05 00:06:34;;;;;;;24.77;21.67;;;;;;;;;;2050809;29;20174;-61
2021/07/05 00:07:34;;;;;;;23.67;20.98;;;;;;;;;;2051165;29;20221;-62
2021/07/05 00:08:34;;;;;;;27.98;22.65;;;;;;;;;;2051524;29;20524;-61
2021/07/05 00:09:35;;;;;;;29.80;22.15;;;;;;;;;;2050357;28;20198;-62
2021/07/05 00:10:36;;;;;;;28.02;21.70;;;;;;;;;;2050217;28;20201;-61
2021/07/05 00:11:36;;;;;;;26.02;20.48;;;;;;;;;;2050310;28;20245;-60
2021/07/05 00:12:36;;;;;;;24.98;21.45;;;;;;;;;;2050800;29;20183;-60
2021/07/05 00:13:36;;;;;;;27.25;21.85;;;;;;;;;;2044335;28;20183;-60
2021/07/05 00:14:37;;;;;;;26.52;21.08;;;;;;;;;;2049461;29;20202;-62
2021/07/05 00:15:37;;;;;;;25.45;20.95;;;;;;;;;;2049747;28;20794;-61
2021/07/05 00:16:38;;;;;;;26.67;21.13;;;;;;;;;;2050249;29;20202;-60
2021/07/05 00:17:38;;;;;;;28.75;21.38;;;;;;;;;;2043931;29;20211;-57
2021/07/05 00:18:38;;;;;;;24.25;21.05;;;;;;;;;;2056807;28;20697;-61
2021/07/05 00:19:38;;;;;;;27.88;19.92;;;;;;;;;;2050580;28;20183;-62
2021/07/05 00:20:41;;;;;;;26.83;21.75;;;;;;;;;;2049967;29;20191;-61
2021/07/05 00:21:42;;;;;;;25.00;20.67;;;;;;;;;;2042768;29;20235;-59
2021/07/05 00:22:42;;;;;;;22.05;19.73;;;;;;;;;;2049467;29;20262;-58
2021/07/05 00:23:42;;;;;;;21.27;18.98;;;;;;;;;;2050279;29;20190;-59
2021/07/05 00:24:42;;;;;;;23.58;19.83;;;;;;;;;;2050494;29;20207;-59
2021/07/05 00:25:44;;;;;;;23.65;20.90;;;;;;;;;;2050736;29;20179;-60
2021/07/05 00:26:44;;;;;;;26.02;20.48;;;;;;;;;;2049022;29;20263;-57
2021/07/05 00:27:44;;;;;;;24.48;20.35;;;;;;;;;;2042495;29;20284;-60
2021/07/05 00:28:44;;;;;;;24.85;20.05;;;;;;;;;;2043876;28;20187;-60
2021/07/05 00:29:45;;;;;;;23.13;20.63;;;;;;;;;;2048432;28;20194;-61
2021/07/05 00:30:45;;;;;;;22.45;19.90;;;;;;;;;;2049317;28;20173;-60
2021/07/05 00:31:45;;;;;;;24.85;21.25;;;;;;;;;;2043081;29;20214;-61
2021/07/05 00:32:46;;;;;;;26.30;20.30;;;;;;;;;;2050632;28;20174;-58
2021/07/05 00:33:46;;;;;;;25.40;21.45;;;;;;;;;;2049495;28;20203;-62
2021/07/05 00:34:47;;;;;;;23.33;20.83;;;;;;;;;;2041905;29;20171;-61
2021/07/05 00:35:47;;;;;;;24.20;20.83;;;;;;;;;;2047058;28;20624;-60
2021/07/05 00:36:47;;;;;;;24.00;20.08;;;;;;;;;;2048272;29;20187;-62
2021/07/05 00:37:48;;;;;;;26.15;22.25;;;;;;;;;;2039107;29;20267;-60
2021/07/05 00:38:48;;;;;;;22.73;20.08;;;;;;;;;;2048893;29;20167;-62
2021/07/05 00:39:49;;;;;;;23.83;21.02;;;;;;;;;;2047606;29;20182;-61
2021/07/05 00:40:49;;;;;;;25.60;20.88;;;;;;;;;;2048908;29;20174;-62
2021/07/05 00:41:49;;;;;;;26.02;20.50;;;;;;;;;;2046448;28;20672;-60
2021/07/05 00:42:50;;;;;;;24.77;20.98;;;;;;;;;;2046522;28;20293;-61
2021/07/05 00:43:50;;;;;;;31.92;22.05;;;;;;;;;;2046111;28;20279;-61
2021/07/05 00:44:51;;;;;;;25.63;21.15;;;;;;;;;;2049360;28;20181;-61
2021/07/05 00:45:51;;;;;;;27.00;21.33;;;;;;;;;;2046112;28;20171;-62
2021/07/05 00:46:51;;;;;;;30.38;21.88;;;;;;;;;;2049409;28;20745;-62
2021/07/05 00:47:52;;;;;;;23.83;21.42;;;;;;;;;;2048293;29;20194;-61
2021/07/05 00:48:53;;;;;;;25.90;20.85;;;;;;;;;;2040843;29;20168;-61
2021/07/05 00:49:53;;;;;;;24.45;20.50;;;;;;;;;;2036342;29;20207;-61
2021/07/05 00:50:53;;;;;;;27.42;20.75;;;;;;;;;;2048781;29;20171;-60
2021/07/05 00:51:54;;;;;;;27.08;22.17;;;;;;;;;;2045618;28;20536;-60
2021/07/05 00:52:56;;;;;;;25.75;20.92;;;;;;;;;;2045854;28;20711;-61
2021/07/05 00:53:56;;;;;;;24.30;21.17;;;;;;;;;;2048797;28;20191;-60
2021/07/05 00:54:57;;;;;;;24.20;20.27;;;;;;;;;;2037192;29;20176;-61
2021/07/05 00:55:57;;;;;;;24.27;19.80;;;;;;;;;;2042650;29;20195;-62
2021/07/05 00:56:57;;;;;;;23.40;19.67;;;;;;;;;;2049056;29;20644;-60
2021/07/05 00:57:58;;;;;;;24.60;19.30;;;;;;;;;;2043250;28;20242;-61
2021/07/05 00:58:59;;;;;;;24.25;20.35;;;;;;;;;;2048381;28;20162;-59
2021/07/05 00:59:59;;;;;;;21.30;19.02;;;;;;;;;;2041744;29;20655;-61
2021/07/05 01:00:59;;;;;;;26.73;20.40;;;;;;;;;;2041433;29;20199;-61
2021/07/05 01:02:00;;;;;;;24.17;19.25;;;;;;;;;;2042891;29;20258;-62
2021/07/05 01:03:00;;;;;;;22.25;19.77;;;;;;;;;;2048903;28;20488;-60
2021/07/05 01:04:00;;;;;;;22.65;19.55;;;;;;;;;;2048954;29;20171;-61
2021/07/05 01:05:01;;;;;;;25.17;19.63;;;;;;;;;;2047411;28;20167;-61
2021/07/05 01:06:01;;;;;;;22.85;19.40;;;;;;;;;;2049700;28;20159;-61
2021/07/05 01:07:02;;;;;;;23.27;19.55;;;;;;;;;;2038657;29;20274;-62
2021/07/05 01:08:02;;;;;;;28.10;20.58;;;;;;;;;;2038676;29;20187;-58
2021/07/05 01:09:03;;;;;;;24.23;19.80;;;;;;;;;;2043769;29;20167;-61
2021/07/05 01:10:04;;;;;;;26.42;19.52;;;;;;;;;;2047813;28;20255;-61
2021/07/05 01:11:05;;;;;;;25.55;19.92;;;;;;;;;;2048993;29;20167;-60
2021/07/05 01:12:06;;;;;;;24.50;19.73;;;;;;;;;;2049155;28;20174;-62
2021/07/05 01:13:06;;;;;;;23.60;18.55;;;;;;;;;;2048453;29;20198;-60
2021/07/05 01:14:06;;;;;;;24.13;19.35;;;;;;;;;;2048988;29;20167;-63
2021/07/05 01:15:07;;;;;;;23.77;19.35;;;;;;;;;;2047357;29;20166;-60
2021/07/05 01:16:07;;;;;;;25.70;19.92;;;;;;;;;;2046921;29;20175;-62
2021/07/05 01:17:13;;;;;;;24.42;19.95;;;;;;;;;;2038330;29;20175;-62
2021/07/05 01:18:13;;;;;;;25.13;20.02;;;;;;;;;;2045094;29;20594;-61
2021/07/05 01:19:14;;;;;;;28.42;20.48;;;;;;;;;;2049138;28;20202;-63
2021/07/05 01:20:17;;;;;;;28.08;21.17;;;;;;;;;;2045668;29;20272;-61
2021/07/05 01:21:17;;;;;;;26.65;20.77;;;;;;;;;;2045328;28;20198;-60
2021/07/05 01:22:18;;;;;;;21.83;18.58;;;;;;;;;;2048449;29;20190;-60
2021/07/05 01:23:18;;;;;;;26.45;19.42;;;;;;;;;;2048375;29;20380;-61
2021/07/05 01:24:18;;;;;;;27.27;22.55;;;;;;;;;;2048930;29;20230;-61
2021/07/05 01:25:20;;;;;;;27.27;21.30;;;;;;;;;;2048517;29;20171;-62
2021/07/05 01:26:21;;;;;;;26.33;21.13;;;;;;;;;;2046531;29;20203;-61
2021/07/05 01:27:23;;;;;;;25.27;20.83;;;;;;;;;;2045901;28;20168;-61
2021/07/05 01:28:23;;;;;;;25.80;19.90;;;;;;;;;;2041836;28;20550;-58
2021/07/05 01:29:24;;;;;;;23.95;19.85;;;;;;;;;;2049040;29;20249;-62
2021/07/05 01:30:24;;;;;;;26.42;21.05;;;;;;;;;;2046379;29;20159;-60
2021/07/05 01:31:24;;;;;;;27.73;20.75;;;;;;;;;;2048879;28;20652;-60
2021/07/05 01:32:25;;;;;;;24.33;20.42;;;;;;;;;;2046236;28;20793;-60
2021/07/05 01:33:25;;;;;;;28.10;21.13;;;;;;;;;;2048404;28;20175;-63
2021/07/05 01:34:25;;;;;;;28.25;20.42;;;;;;;;;;2050161;28;20167;-63
2021/07/05 01:35:26;;;;;;;27.58;22.55;;;;;;;;;;2049108;28;20206;-63
2021/07/05 01:36:26;;;;;;;30.42;21.42;;;;;;;;;;2048857;28;20187;-60
2021/07/05 01:37:26;;;;;;;26.73;22.30;;;;;;;;;;2048564;28;20190;-62
2021/07/05 01:38:27;;;;;;;29.48;21.00;;;;;;;;;;2049506;28;20179;-61
2021/07/05 01:39:27;;;;;;;27.10;21.52;;;;;;;;;;2048738;29;20648;-61
2021/07/05 01:40:28;;;;;;;31.90;22.50;;;;;;;;;;2047115;29;20171;-61
2021/07/05 01:41:28;;;;;;;28.30;20.95;;;;;;;;;;2046976;29;20202;-61
2021/07/05 01:42:29;;;;;;;26.65;21.15;;;;;;;;;;2049852;28;20202;-63
2021/07/05 01:43:29;;;;;;;27.85;21.92;;;;;;;;;;2049645;28;20175;-62
2021/07/05 01:44:30;;;;;;;25.23;21.05;;;;;;;;;;2049590;28;20190;-61
2021/07/05 01:45:32;;;;;;;28.00;22.30;;;;;;;;;;2049849;29;20187;-61
2021/07/05 01:46:33;;;;;;;30.45;22.40;;;;;;;;;;2050646;28;20294;-60
2021/07/05 01:47:33;;;;;;;26.55;20.45;;;;;;;;;;2043344;28;20686;-64
2021/07/05 01:48:33;;;;;;;31.05;23.73;;;;;;;;;;2042260;29;20166;-60
2021/07/05 01:49:33;;;;;;;26.70;21.63;;;;;;;;;;2042571;29;20278;-61
2021/07/05 01:50:34;;;;;;;27.48;22.67;;;;;;;;;;2041891;29;20270;-59
2021/07/05 01:51:34;;;;;;;29.27;22.75;;;;;;;;;;2041267;29;20179;-61
2021/07/05 01:52:34;;;;;;;30.98;23.02;;;;;;;;;;2046015;29;20179;-60
2021/07/05 01:53:35;;;;;;;29.85;22.75;;;;;;;;;;2042246;29;20227;-62
2021/07/05 01:54:35;;;;;;;32.30;23.58;;;;;;;;;;2041673;29;20184;-61
2021/07/05 01:55:36;;;;;;;28.63;21.80;;;;;;;;;;2041589;29;20180;-61
2021/07/05 01:56:36;;;;;;;32.80;24.40;;;;;;;;;;2041405;29;20172;-60
2021/07/05 01:57:37;;;;;;;33.38;25.10;;;;;;;;;;2047877;28;20746;-60
2021/07/05 01:58:38;;;;;;;30.67;23.08;;;;;;;;;;2049154;29;20574;-60
2021/07/05 01:59:38;;;;;;;33.08;23.98;;;;;;;;;;2049789;28;20238;-61
2021/07/05 02:00:41;;;;;;;32.13;24.20;;;;;;;;;;2049322;29;20237;-60
2021/07/05 02:01:41;;;;;;;32.88;24.35;;;;;;;;;;2048665;29;20198;-60
2021/07/05 02:02:42;;;;;;;32.10;24.00;;;;;;;;;;2045229;28;20195;-59
2021/07/05 02:03:42;;;;;;;29.30;22.83;;;;;;;;;;2041725;29;20171;-60
2021/07/05 02:04:42;;;;;;;31.65;24.70;;;;;;;;;;2033389;29;20179;-60
2021/07/05 02:05:44;;;;;;;35.80;25.35;;;;;;;;;;2041612;28;20185;-61
2021/07/05 02:06:44;;;;;;;36.25;24.63;;;;;;;;;;2048346;29;20207;-60
2021/07/05 02:07:45;;;;;;;30.23;24.25;;;;;;;;;;2046877;29;20559;-60
2021/07/05 02:08:45;;;;;;;31.13;23.77;;;;;;;;;;2041370;29;20243;-61
2021/07/05 02:09:46;;;;;;;31.83;24.00;;;;;;;;;;2047869;28;20614;-60
2021/07/05 02:10:47;;;;;;;34.75;24.98;;;;;;;;;;2049359;28;20167;-59
2021/07/05 02:11:47;;;;;;;30.95;23.92;;;;;;;;;;2047982;28;20201;-61
2021/07/05 02:12:48;;;;;;;32.97;25.20;;;;;;;;;;2043243;29;20178;-61
2021/07/05 02:13:50;;;;;;;34.00;25.85;;;;;;;;;;2050185;29;20178;-61
2021/07/05 02:14:50;;;;;;;32.83;25.65;;;;;;;;;;2050204;29;20202;-60
2021/07/05 02:15:52;;;;;;;36.00;26.23;;;;;;;;;;2050784;28;20171;-62
2021/07/05 02:16:52;;;;;;;34.40;25.15;;;;;;;;;;2048671;29;20230;-60
2021/07/05 02:17:52;;;;;;;34.00;24.95;;;;;;;;;;2042914;29;20711;-61
2021/07/05 02:18:52;;;;;;;36.28;25.63;;;;;;;;;;2057713;28;20673;-60
2021/07/05 02:19:53;;;;;;;34.88;24.20;;;;;;;;;;2050262;28;20183;-62
2021/07/05 02:20:54;;;;;;;35.85;24.35;;;;;;;;;;2050117;29;20286;-60
2021/07/05 02:21:54;;;;;;;33.80;24.70;;;;;;;;;;2048644;28;20263;-61
2021/07/05 02:22:55;;;;;;;34.15;24.27;;;;;;;;;;2048223;29;20202;-61
2021/07/05 02:23:56;;;;;;;31.48;24.35;;;;;;;;;;2050483;28;20167;-60
2021/07/05 02:24:56;;;;;;;34.83;25.70;;;;;;;;;;2050155;28;20187;-63
2021/07/05 02:25:56;;;;;;;33.83;23.83;;;;;;;;;;2050375;29;20166;-60
2021/07/05 02:26:57;;;;;;;32.00;23.73;;;;;;;;;;2051347;29;20636;-62
2021/07/05 02:28:02;;;;;;;33.03;23.35;;;;;;;;;;2047979;28;20219;-62
2021/07/05 02:29:02;;;;;;;33.35;23.58;;;;;;;;;;2042793;29;20168;-61
2021/07/05 02:30:04;;;;;;;31.00;24.42;;;;;;;;;;2043307;29;20206;-61
2021/07/05 02:31:05;;;;;;;35.35;24.63;;;;;;;;;;2043640;29;20761;-60
2021/07/05 02:32:06;;;;;;;32.33;23.63;;;;;;;;;;2059068;23;20226;-53
2021/07/05 02:33:06;;;;;;;35.53;24.83;;;;;;;;;;2040172;29;20183;-52
2021/07/05 02:34:07;;;;;;;36.03;25.02;;;;;;;;;;2041647;29;20550;-53
2021/07/05 02:35:09;;;;;;;32.53;23.00;;;;;;;;;;2042156;29;20243;-53
2021/07/05 02:36:09;;;;;;;33.70;25.02;;;;;;;;;;2042724;29;20703;-55
2021/07/05 02:37:10;;;;;;;35.50;24.23;;;;;;;;;;2041165;29;20167;-52
2021/07/05 02:38:12;;;;;;;33.67;24.20;;;;;;;;;;2040959;29;20179;-52
2021/07/05 02:39:12;;;;;;;31.77;22.73;;;;;;;;;;2038629;29;20243;-51
2021/07/05 02:40:14;;;;;;;36.40;25.75;;;;;;;;;;2039369;29;20668;-50
2021/07/05 02:41:14;;;;;;;31.50;24.30;;;;;;;;;;2040686;29;20182;-50
2021/07/05 02:42:14;;;;;;;37.22;25.38;;;;;;;;;;2046570;29;20193;-51
2021/07/05 02:43:15;;;;;;;34.95;24.23;;;;;;;;;;2043561;29;20177;-51
2021/07/05 02:44:16;;;;;;;33.08;24.15;;;;;;;;;;2049478;28;20633;-51
2021/07/05 02:45:22;;;;;;;35.85;23.83;;;;;;;;;;2048366;28;20553;-51
2021/07/05 02:46:22;;;;;;;37.67;24.27;;;;;;;;;;2041875;29;20180;-50
2021/07/05 02:47:22;;;;;;;35.47;24.80;;;;;;;;;;2039799;29;20645;-54
2021/07/05 02:48:24;;;;;;;34.72;23.63;;;;;;;;;;2043568;29;20170;-51
2021/07/05 02:49:25;;;;;;;35.80;25.65;;;;;;;;;;2035244;29;20267;-50
2021/07/05 02:50:26;;;;;;;32.92;23.27;;;;;;;;;;2030215;29;20168;-54
2021/07/05 02:51:26;;;;;;;32.47;23.40;;;;;;;;;;2039072;29;20179;-58
2021/07/05 02:52:26;;;;;;;38.05;24.42;;;;;;;;;;2032359;29;20250;-52
2021/07/05 02:53:26;;;;;;;34.72;23.30;;;;;;;;;;2039026;29;20242;-51
2021/07/05 02:54:27;;;;;;;36.42;25.17;;;;;;;;;;2043513;29;20195;-52
2021/07/05 02:55:27;;;;;;;36.67;26.30;;;;;;;;;;2041239;29;20170;-51
2021/07/05 02:56:27;;;;;;;35.83;24.90;;;;;;;;;;2039982;29;20740;-52
2021/07/05 02:57:31;;;;;;;36.92;24.85;;;;;;;;;;2042042;29;20535;-52
2021/07/05 02:58:31;;;;;;;35.53;24.35;;;;;;;;;;2046021;29;20570;-51
2021/07/05 02:59:32;;;;;;;31.95;23.67;;;;;;;;;;2047651;28;20672;-54
2021/07/05 03:00:34;;;;;;;34.53;23.98;;;;;;;;;;2041669;29;20176;-55
2021/07/05 03:01:34;;;;;;;39.53;26.58;;;;;;;;;;2047876;29;20652;-52
2021/07/05 03:02:34;;;;;;;35.60;26.17;;;;;;;;;;2046177;28;20203;-51
2021/07/05 03:03:35;;;;;;;38.13;26.05;;;;;;;;;;2048804;29;20179;-54
2021/07/05 03:04:35;;;;;;;40.08;27.40;;;;;;;;;;2041764;28;20184;-51
2021/07/05 03:05:35;;;;;;;40.90;26.52;;;;;;;;;;2044562;29;20172;-53
2021/07/05 03:06:35;;;;;;;41.88;26.58;;;;;;;;;;2041814;29;20234;-54
2021/07/05 03:07:36;;;;;;;37.22;25.38;;;;;;;;;;2040875;29;20182;-51
2021/07/05 03:08:36;;;;;;;37.67;24.70;;;;;;;;;;2048227;29;20234;-51
2021/07/05 03:09:36;;;;;;;34.58;24.17;;;;;;;;;;2045290;29;20188;-52
2021/07/05 03:10:38;;;;;;;34.97;24.63;;;;;;;;;;2038778;29;20192;-51
2021/07/05 03:11:38;;;;;;;37.17;25.02;;;;;;;;;;2032280;29;20179;-53
2021/07/05 03:12:38;;;;;;;39.35;25.27;;;;;;;;;;2038240;29;20690;-50
2021/07/05 03:13:38;;;;;;;38.03;26.65;;;;;;;;;;2042793;29;20203;-51
2021/07/05 03:14:39;;;;;;;39.47;27.17;;;;;;;;;;2048910;29;20544;-51
2021/07/05 03:15:39;;;;;;;39.13;27.00;;;;;;;;;;2040274;29;20243;-53
2021/07/05 03:16:39;;;;;;;39.15;26.63;;;;;;;;;;2034821;29;20203;-53
2021/07/05 03:17:41;;;;;;;48.08;30.63;;;;;;;;;;2047357;29;20539;-56
2021/07/05 03:18:41;;;;;;;38.67;26.77;;;;;;;;;;2048201;28;20178;-53
2021/07/05 03:19:42;;;;;;;44.95;28.52;;;;;;;;;;2041209;29;20210;-56
2021/07/05 03:20:48;;;;;;;47.75;30.02;;;;;;;;;;2040990;29;20268;-54
2021/07/05 03:21:48;;;;;;;45.05;30.73;;;;;;;;;;2033696;29;20180;-53
2021/07/05 03:22:50;;;;;;;42.60;27.15;;;;;;;;;;2040459;29;20210;-52
2021/07/05 03:23:50;;;;;;;40.85;27.00;;;;;;;;;;2043732;28;20196;-56
2021/07/05 03:24:50;;;;;;;38.13;25.50;;;;;;;;;;2045388;29;20538;-56
2021/07/05 03:25:51;;;;;;;39.78;25.95;;;;;;;;;;2047441;29;20236;-55
2021/07/05 03:26:51;;;;;;;38.78;25.48;;;;;;;;;;2037156;29;20173;-53
2021/07/05 03:27:52;;;;;;;45.25;27.83;;;;;;;;;;2047948;29;20167;-53
2021/07/05 03:28:52;;;;;;;39.28;25.50;;;;;;;;;;2042039;29;20204;-54
2021/07/05 03:29:53;;;;;;;37.72;25.75;;;;;;;;;;2047244;29;20171;-56
2021/07/05 03:30:54;;;;;;;33.88;23.30;;;;;;;;;;2029783;29;20175;-51
2021/07/05 03:31:54;;;;;;;41.40;26.05;;;;;;;;;;2039820;29;20259;-55
2021/07/05 03:32:55;;;;;;;38.92;25.55;;;;;;;;;;2039555;29;20187;-53
2021/07/05 03:33:55;;;;;;;37.30;24.83;;;;;;;;;;2042334;29;20188;-52
2021/07/05 03:34:55;;;;;;;35.90;23.75;;;;;;;;;;2047386;29;20177;-50
2021/07/05 03:35:56;;;;;;;39.03;23.27;;;;;;;;;;2039319;29;20180;-50
2021/07/05 03:36:56;;;;;;;38.33;25.77;;;;;;;;;;2046154;28;20171;-52
2021/07/05 03:37:57;;;;;;;37.35;22.23;;;;;;;;;;2042026;29;20315;-54
2021/07/05 03:38:57;;;;;;;36.08;23.67;;;;;;;;;;2046624;29;20179;-53
2021/07/05 03:39:57;;;;;;;29.55;20.98;;;;;;;;;;2041329;29;20182;-54
2021/07/05 03:40:58;;;;;;;30.85;21.27;;;;;;;;;;2041632;29;20175;-54
2021/07/05 03:41:58;;;;;;;35.78;21.35;;;;;;;;;;2043003;28;20206;-51
2021/07/05 03:42:59;;;;;;;27.63;21.23;;;;;;;;;;2045422;29;20779;-54
2021/07/05 03:43:59;;;;;;;30.77;20.10;;;;;;;;;;2043987;29;20179;-53
2021/07/05 03:45:00;;;;;;;30.40;20.50;;;;;;;;;;2047043;29;20197;-52
2021/07/05 03:46:00;;;;;;;27.20;18.83;;;;;;;;;;2043065;29;20214;-54
2021/07/05 03:47:01;;;;;;;31.23;20.98;;;;;;;;;;2040163;28;20295;-53
2021/07/05 03:48:01;;;;;;;29.15;20.17;;;;;;;;;;2043910;29;20239;-53
2021/07/05 03:49:02;;;;;;;28.75;19.48;;;;;;;;;;2041191;29;20172;-50
2021/07/05 03:50:07;;;;;;;28.15;18.95;;;;;;;;;;2046671;29;20197;-52
2021/07/05 03:51:07;;;;;;;27.13;19.02;;;;;;;;;;2036009;29;20171;-54
2021/07/05 03:52:07;;;;;;;29.42;19.70;;;;;;;;;;2040290;29;20188;-56
2021/07/05 03:53:08;;;;;;;30.38;20.50;;;;;;;;;;2042447;29;20171;-52
2021/07/05 03:54:08;;;;;;;29.13;17.98;;;;;;;;;;2045312;29;20215;-55
2021/07/05 03:55:09;;;;;;;30.33;19.27;;;;;;;;;;2042134;29;20171;-56
2021/07/05 03:56:10;;;;;;;27.95;18.83;;;;;;;;;;2040618;29;20790;-55
2021/07/05 03:57:21;;;;;;;25.33;17.95;;;;;;;;;;2045263;28;20298;-56
2021/07/05 03:58:22;;;;;;;29.63;19.25;;;;;;;;;;2040220;29;20255;-53
2021/07/05 03:59:22;;;;;;;29.38;19.52;;;;;;;;;;2042859;29;20174;-56
2021/07/05 04:00:25;;;;;;;29.55;20.15;;;;;;;;;;2041987;28;20164;-52
2021/07/05 04:01:25;;;;;;;29.83;18.98;;;;;;;;;;2038432;29;20215;-54
2021/07/05 04:02:26;;;;;;;22.90;18.02;;;;;;;;;;2045369;29;20218;-50
2021/07/05 04:03:27;;;;;;;27.58;18.77;;;;;;;;;;2039518;28;20218;-50
2021/07/05 04:04:28;;;;;;;31.35;20.33;;;;;;;;;;2041385;29;20164;-53
2021/07/05 04:05:28;;;;;;;26.85;19.13;;;;;;;;;;2039854;29;20175;-52
2021/07/05 04:06:28;;;;;;;28.67;18.17;;;;;;;;;;2046220;29;20226;-52
2021/07/05 04:07:29;;;;;;;23.23;17.38;;;;;;;;;;2038960;28;20194;-57
2021/07/05 04:08:30;;;;;;;24.67;17.80;;;;;;;;;;2047082;29;20619;-53
2021/07/05 04:09:31;;;;;;;25.98;17.60;;;;;;;;;;2036512;28;20164;-52
2021/07/05 04:10:32;;;;;;;22.83;17.15;;;;;;;;;;2052193;28;20209;-54
2021/07/05 04:11:33;;;;;;;19.00;15.30;;;;;;;;;;2048529;28;20551;-53
2021/07/05 04:12:34;;;;;;;22.15;16.70;;;;;;;;;;2044538;29;20229;-53
2021/07/05 04:13:34;;;;;;;22.75;16.08;;;;;;;;;;2040526;29;20171;-53
2021/07/05 04:14:35;;;;;;;20.90;16.20;;;;;;;;;;2036753;29;20194;-50
2021/07/05 04:15:35;;;;;;;26.58;17.02;;;;;;;;;;2047830;29;20186;-52
2021/07/05 04:16:35;;;;;;;22.65;16.90;;;;;;;;;;2041543;29;20180;-55
2021/07/05 04:17:36;;;;;;;22.10;15.95;;;;;;;;;;2054905;28;20557;-54
2021/07/05 04:18:36;;;;;;;21.65;16.10;;;;;;;;;;2035232;28;20179;-53
2021/07/05 04:19:36;;;;;;;22.77;15.73;;;;;;;;;;2046753;29;20188;-54
2021/07/05 04:20:37;;;;;;;20.35;15.43;;;;;;;;;;2041276;28;20294;-55
2021/07/05 04:21:37;;;;;;;19.65;14.95;;;;;;;;;;2055131;28;20229;-50
2021/07/05 04:22:37;;;;;;;19.17;15.02;;;;;;;;;;2040587;29;20607;-54
2021/07/05 04:23:38;;;;;;;20.42;14.40;;;;;;;;;;2039628;29;20184;-54
2021/07/05 04:24:38;;;;;;;19.10;14.50;;;;;;;;;;2040754;29;20184;-53
2021/07/05 04:25:38;;;;;;;18.10;14.07;;;;;;;;;;2047488;29;20242;-55
2021/07/05 04:26:38;;;;;;;18.70;15.05;;;;;;;;;;2047599;29;20175;-52
2021/07/05 04:27:39;;;;;;;21.13;14.05;;;;;;;;;;2041389;29;20640;-54
2021/07/05 04:28:40;;;;;;;17.45;13.40;;;;;;;;;;2042252;29;20232;-55
2021/07/05 04:29:40;;;;;;;15.32;13.00;;;;;;;;;;2048012;29;20562;-54
2021/07/05 04:30:40;;;;;;;15.98;13.88;;;;;;;;;;2040722;28;20208;-51
2021/07/05 04:31:41;;;;;;;15.80;12.43;;;;;;;;;;2047647;29;20194;-53
2021/07/05 04:32:41;;;;;;;15.38;11.07;;;;;;;;;;2039843;29;20214;-52
2021/07/05 04:33:42;;;;;;;13.88;11.90;;;;;;;;;;2049059;29;20272;-57
2021/07/05 04:34:42;;;;;;;15.00;10.82;;;;;;;;;;2037046;29;20200;-52
2021/07/05 04:35:42;;;;;;;14.88;11.70;;;;;;;;;;2043567;28;20191;-53
2021/07/05 04:36:42;;;;;;;12.93;10.63;;;;;;;;;;2041785;29;20691;-53
2021/07/05 04:37:44;;;;;;;17.30;11.60;;;;;;;;;;2040208;29;20681;-54
2021/07/05 04:38:44;;;;;;;13.13;10.27;;;;;;;;;;2048875;29;20610;-53
2021/07/05 04:39:44;;;;;;;17.25;11.90;;;;;;;;;;2040626;29;20249;-55
2021/07/05 04:40:45;;;;;;;16.52;10.95;;;;;;;;;;2043054;29;20633;-53
2021/07/05 04:41:46;;;;;;;16.10;10.63;;;;;;;;;;2034146;29;20180;-54
2021/07/05 04:42:47;;;;;;;13.60;10.15;;;;;;;;;;2040891;28;20246;-52
2021/07/05 04:43:47;;;;;;;12.32;9.88;;;;;;;;;;2039998;28;21611;-55
2021/07/05 04:44:50;;;;;;;9.95;8.85;;;;;;;;;;2039006;29;20181;-54
2021/07/05 04:45:50;;;;;;;10.18;9.18;;;;;;;;;;2040030;29;20179;-54
2021/07/05 04:46:51;;;;;;;12.40;8.57;;;;;;;;;;2041348;29;20188;-51
2021/07/05 04:47:52;;;;;;;10.30;8.52;;;;;;;;;;2038529;29;20628;-52
2021/07/05 04:48:56;;;;;;;10.50;9.18;;;;;;;;;;2038401;29;20262;-52
2021/07/05 04:49:56;;;;;;;8.65;7.80;;;;;;;;;;2039472;28;21514;-50
2021/07/05 04:50:56;;;;;;;9.85;8.85;;;;;;;;;;2037381;29;20190;-53
2021/07/05 04:51:57;;;;;;;12.80;8.32;;;;;;;;;;2039261;29;20195;-54
2021/07/05 04:52:57;;;;;;;8.27;7.57;;;;;;;;;;2034893;29;20234;-55
2021/07/05 04:53:57;;;;;;;8.80;7.35;;;;;;;;;;2037688;29;20302;-55
2021/07/05 04:54:58;;;;;;;7.05;6.30;;;;;;;;;;2038525;29;20172;-53
2021/07/05 04:55:58;;;;;;;9.90;7.60;;;;;;;;;;2041271;29;20192;-52
2021/07/05 04:56:59;;;;;;;8.50;7.70;;;;;;;;;;2038901;29;20531;-53
2021/07/05 04:58:00;;;;;;;6.68;5.97;;;;;;;;;;2038035;29;20185;-50
2021/07/05 04:59:00;;;;;;;6.57;5.97;;;;;;;;;;2039399;29;20630;-55
2021/07/05 05:00:01;;;;;;;6.90;5.95;;;;;;;;;;2039277;29;20234;-55
2021/07/05 05:01:01;;;;;;;7.65;6.20;;;;;;;;;;2040822;29;20783;-59
2021/07/05 05:02:02;;;;;;;6.65;6.05;;;;;;;;;;2039918;29;20207;-52
2021/07/05 05:03:03;;;;;;;6.85;6.03;;;;;;;;;;2039868;29;20676;-55
2021/07/05 05:04:04;;;;;;;7.95;5.88;;;;;;;;;;2040603;29;20168;-53
2021/07/05 05:05:05;;;;;;;5.78;5.28;;;;;;;;;;2040022;29;20183;-61
2021/07/05 05:06:05;;;;;;;5.45;4.95;;;;;;;;;;2037483;29;20747;-52
2021/07/05 05:07:06;;;;;;;6.45;5.22;;;;;;;;;;2039051;29;20172;-52
2021/07/05 05:08:08;;;;;;;5.72;5.22;;;;;;;;;;2037019;29;20180;-56
2021/07/05 05:09:08;;;;;;;5.30;4.80;;;;;;;;;;2039114;29;20202;-52
2021/07/05 05:10:09;;;;;;;5.57;5.13;;;;;;;;;;2037101;29;20179;-55
2021/07/05 05:11:10;;;;;;;8.80;7.07;;;;;;;;;;2039674;29;20202;-56
2021/07/05 05:12:10;;;;;;;6.20;4.82;;;;;;;;;;2039994;29;20222;-55
2021/07/05 05:13:10;;;;;;;5.65;5.15;;;;;;;;;;2039172;29;20584;-55
2021/07/05 05:14:11;;;;;;;5.07;4.38;;;;;;;;;;2035980;29;20176;-53
2021/07/05 05:15:11;;;;;;;5.70;4.80;;;;;;;;;;2039558;29;20574;-55
2021/07/05 05:16:12;;;;;;;8.77;6.03;;;;;;;;;;2038628;29;20679;-56
2021/07/05 05:17:12;;;;;;;5.22;3.92;;;;;;;;;;2038818;29;20213;-53
2021/07/05 05:18:13;;;;;;;4.55;4.22;;;;;;;;;;2038283;29;20176;-52
2021/07/05 05:19:13;;;;;;;5.95;4.78;;;;;;;;;;2040295;29;20218;-56
2021/07/05 05:20:15;;;;;;;4.85;4.38;;;;;;;;;;2044672;29;20247;-54
2021/07/05 05:21:15;;;;;;;3.92;3.65;;;;;;;;;;2040395;29;20183;-53
2021/07/05 05:22:15;;;;;;;5.97;5.00;;;;;;;;;;2040994;29;20193;-55
2021/07/05 05:23:16;;;;;;;4.53;4.00;;;;;;;;;;2041346;29;20174;-53
2021/07/05 05:24:16;;;;;;;10.75;4.10;;;;;;;;;;2046752;29;20676;-52
2021/07/05 05:25:17;;;;;;;5.28;4.82;;;;;;;;;;2039148;29;20289;-51
2021/07/05 05:26:18;;;;;;;4.53;4.13;;;;;;;;;;2041639;29;20183;-54
2021/07/05 05:27:18;;;;;;;4.45;4.15;;;;;;;;;;2039471;29;21408;-56
2021/07/05 05:28:18;;;;;;;5.13;4.60;;;;;;;;;;2040347;29;20314;-50
2021/07/05 05:29:19;;;;;;;4.90;4.43;;;;;;;;;;2036323;29;20208;-56
2021/07/05 05:30:20;;;;;;;4.00;3.47;;;;;;;;;;2035831;29;20764;-58
2021/07/05 05:31:20;;;;;;;4.43;3.30;;;;;;;;;;2035412;29;20190;-55
2021/07/05 05:32:20;;;;;;;3.97;3.45;;;;;;;;;;2032749;29;20208;-57
2021/07/05 05:33:20;;;;;;;9.98;3.65;;;;;;;;;;2032155;29;20180;-54
2021/07/05 05:34:21;;;;;;;3.65;3.35;;;;;;;;;;2031000;29;20215;-55
2021/07/05 05:35:22;;;;;;;3.05;2.85;;;;;;;;;;2037483;29;20330;-53
2021/07/05 05:36:22;;;;;;;3.90;3.35;;;;;;;;;;2039631;29;20187;-54
2021/07/05 05:37:23;;;;;;;3.47;3.17;;;;;;;;;;2038247;29;20190;-52
2021/07/05 05:38:23;;;;;;;3.55;3.35;;;;;;;;;;2035890;29;20194;-53
2021/07/05 05:39:23;;;;;;;3.45;3.15;;;;;;;;;;2040117;29;20230;-52
2021/07/05 05:40:24;;;;;;;4.05;2.92;;;;;;;;;;2036098;29;20196;-54
2021/07/05 05:41:25;;;;;;;4.78;3.35;;;;;;;;;;2039630;29;20172;-51
2021/07/05 05:42:26;;;;;;;4.07;3.03;;;;;;;;;;2038987;29;20203;-55
2021/07/05 05:43:26;;;;;;;3.20;3.00;;;;;;;;;;2035049;29;20532;-51
2021/07/05 05:44:26;;;;;;;3.35;3.05;;;;;;;;;;2035867;29;20187;-52
2021/07/05 05:45:27;;;;;;;5.32;2.97;;;;;;;;;;2038412;29;20187;-55
2021/07/05 05:46:28;;;;;;;4.38;3.20;;;;;;;;;;2036559;29;20170;-56
2021/07/05 05:47:31;;;;;;;4.05;2.88;;;;;;;;;;2037709;29;20558;-54
2021/07/05 05:48:31;;;;;;;4.55;3.10;;;;;;;;;;2031406;29;20191;-51
2021/07/05 05:49:32;;;;;;;3.20;2.90;;;;;;;;;;2039529;29;20172;-51
2021/07/05 05:50:32;;;;;;;4.32;3.00;;;;;;;;;;2037143;29;20215;-50
2021/07/05 05:51:33;;;;;;;2.90;2.70;;;;;;;;;;2038460;29;20191;-50
2021/07/05 05:52:33;;;;;;;2.60;2.50;;;;;;;;;;2036680;29;20320;-54
2021/07/05 05:53:34;;;;;;;3.00;2.67;;;;;;;;;;2032134;29;20188;-52
2021/07/05 05:54:34;;;;;;;3.33;2.50;;;;;;;;;;2037965;29;20262;-53